• Join FlightAware (Why Join?)
  • Login
  • US Flag 
Rudolph Flight #1: Scheduled 
08:53PM EST


 

Airport Tracker/Info


-or-


 

Live Flight TrackerFlight Track Log ✈ BER2089 ✈ 19-Aug-2012 ✈ GCRR / ACE - LSZH / ZRH

Flight Track Log - Related Links

Times and Time Zones

All times are in EDT time to prevent confusion due to time zone crossing. See the BER2089 flight status page for this flight to view local times or setup timezone preferences in your user account.

Time Position Orientation Groundspeed Altitude Reporting Facility
EDT Latitude Longitude Course Direction KTS MPH feet Rate Location/Type
12:55PM 29.9778 -12.7138 37° Northeast  Level Estimated
12:56PM 30.0713 -12.6319 37° Northeast  Level Estimated
12:57PM 30.1648 -12.5498 37° Northeast  Level Estimated
12:58PM 30.2582 -12.4675 37° Northeast  Level Estimated
12:59PM 30.3516 -12.3851 37° Northeast  Level Estimated
01:00PM 30.4450 -12.3025 37° Northeast  Level Estimated
01:01PM 30.5383 -12.2198 37° Northeast  Level Estimated
01:02PM 30.6315 -12.1369 37° Northeast  Level Estimated
01:03PM 30.7247 -12.0538 37° Northeast  Level Estimated
01:04PM 30.8178 -11.9706 38° Northeast  Level Estimated
01:05PM 30.9109 -11.8873 38° Northeast  Level Estimated
01:06PM 31.0039 -11.8037 38° Northeast  Level Estimated
01:07PM 31.0969 -11.7200 38° Northeast  Level Estimated
01:08PM 31.1898 -11.6362 38° Northeast  Level Estimated
01:09PM 31.2827 -11.5521 38° Northeast  Level Estimated
01:10PM 31.3755 -11.4679 38° Northeast  Level Estimated
01:11PM 31.4682 -11.3836 38° Northeast  Level Estimated
01:12PM 31.5609 -11.2991 38° Northeast  Level Estimated
01:13PM 31.6536 -11.2144 38° Northeast  Level Estimated
01:14PM 31.7461 -11.1295 38° Northeast  Level Estimated
01:15PM 31.8387 -11.0445 38° Northeast  Level Estimated
01:16PM 31.9312 -10.9593 38° Northeast  Level Estimated
01:17PM 32.0236 -10.8739 38° Northeast  Level Estimated
01:18PM 32.1159 -10.7884 38° Northeast  Level Estimated
01:19PM 32.2082 -10.7026 38° Northeast  Level Estimated
01:20PM 32.3005 -10.6167 38° Northeast  Level Estimated
01:21PM 32.3926 -10.5307 38° Northeast  Level Estimated
01:22PM 32.4848 -10.4444 38° Northeast  Level Estimated
01:23PM 32.5768 -10.3580 38° Northeast  Level Estimated
01:24PM 32.6688 -10.2714 38° Northeast  Level Estimated
01:25PM 32.7608 -10.1846 38° Northeast  Level Estimated
01:26PM 32.8527 -10.0977 39° Northeast  Level Estimated
01:27PM 32.9445 -10.0105 39° Northeast  Level Estimated
01:28PM 33.0363 -9.9232 39° Northeast  Level Estimated
01:29PM 33.1280 -9.8357 39° Northeast  Level Estimated
01:30PM 33.2196 -9.7480 39° Northeast  Level Estimated
01:31PM 33.3112 -9.6602 39° Northeast  Level Estimated
01:32PM 33.4027 -9.5721 39° Northeast  Level Estimated
01:33PM 33.4942 -9.4839 39° Northeast  Level Estimated
01:34PM 33.5856 -9.3955 39° Northeast  Level Estimated
01:35PM 33.6769 -9.3069 39° Northeast  Level Estimated
01:36PM 33.7682 -9.2181 39° Northeast  Level Estimated
01:37PM 33.8594 -9.1291 39° Northeast  Level Estimated
01:38PM 33.9505 -9.0399 39° Northeast  Level Estimated
01:39PM 34.0416 -8.9505 39° Northeast  Level Estimated
01:40PM 34.1326 -8.8610 39° Northeast  Level Estimated
01:41PM 34.2236 -8.7712 39° Northeast  Level Estimated
01:42PM 34.3145 -8.6812 39° Northeast  Level Estimated
01:43PM 34.4053 -8.5911 39° Northeast  Level Estimated
01:44PM 34.4960 -8.5008 39° Northeast  Level Estimated
01:45PM 34.5867 -8.4102 39° Northeast  Level Estimated
01:46PM 34.6773 -8.3195 40° Northeast  Level Estimated
01:47PM 34.7679 -8.2285 40° Northeast  Level Estimated
01:48PM 34.8584 -8.1374 40° Northeast  Level Estimated
01:49PM 34.9488 -8.0461 40° Northeast  Level Estimated
01:50PM 35.0391 -7.9545 40° Northeast  Level Estimated
01:51PM 35.1294 -7.8628 40° Northeast  Level Estimated
01:52PM 35.2196 -7.7709 40° Northeast  Level Estimated
01:53PM 35.3097 -7.6787 40° Northeast  Level Estimated
01:54PM 35.3998 -7.5864 40° Northeast  Level Estimated
01:55PM 35.4898 -7.4938 40° Northeast  Level Estimated
01:56PM 35.5797 -7.4010 40° Northeast  Level Estimated
01:57PM 35.6696 -7.3081 40° Northeast  Level Estimated
01:58PM 35.7593 -7.2149 40° Northeast  Level Estimated
01:59PM 35.8491 -7.1215 40° Northeast  Level Estimated
02:00PM 35.9387 -7.0279 40° Northeast  Level Estimated
02:01PM 36.0283 -6.9341 40° Northeast  Level Estimated
02:02PM 36.1177 -6.8400 40° Northeast  Level Estimated
02:03PM 36.2072 -6.7458 40° Northeast  Level Estimated
02:04PM 36.2965 -6.6513 40° Northeast  Level Estimated
02:05PM 36.3858 -6.5567 41° Northeast  Level Estimated
02:06PM 36.4750 -6.4618 41° Northeast  Level Estimated
02:07PM 36.5641 -6.3666 41° Northeast  Level Estimated
02:08PM 36.6531 -6.2713 41° Northeast  Level Estimated
02:09PM 36.7421 -6.1758 41° Northeast  Level Estimated
02:10PM 36.8310 -6.0800 41° Northeast  Level Estimated
02:11PM 36.9198 -5.9840 41° Northeast  Level Estimated
02:12PM 37.0085 -5.8878 41° Northeast  Level Estimated
02:13PM 37.0972 -5.7913 41° Northeast  Level Estimated
02:14PM 37.1858 -5.6946 41° Northeast  Level Estimated
02:15PM 37.2743 -5.5977 41° Northeast  Level Estimated
02:16PM 37.3627 -5.5006 41° Northeast  Level Estimated
02:17PM 37.4510 -5.4033 41° Northeast  Level Estimated
02:18PM 37.5393 -5.3057 41° Northeast  Level Estimated
02:19PM 37.6275 -5.2078 41° Northeast  Level Estimated
02:20PM 37.7156 -5.1098 41° Northeast  Level Estimated
02:21PM 37.8036 -5.0115 41° Northeast  Level Estimated
02:22PM 37.8915 -4.9130 42° Northeast  Level Estimated
02:23PM 37.9794 -4.8142 42° Northeast  Level Estimated
02:24PM 38.0672 -4.7153 42° Northeast  Level Estimated
02:25PM 38.1549 -4.6160 42° Northeast  Level Estimated
02:26PM 38.2425 -4.5166 42° Northeast  Level Estimated
02:27PM 38.3300 -4.4168 42° Northeast  Level Estimated
02:28PM 38.4174 -4.3169 42° Northeast  Level Estimated
02:29PM 38.5048 -4.2167 42° Northeast  Level Estimated
02:30PM 38.5920 -4.1163 42° Northeast  Level Estimated
02:31PM 38.6792 -4.0156 42° Northeast  Level Estimated
02:32PM 38.7663 -3.9147 42° Northeast  Level Estimated
02:33PM 38.8533 -3.8135 42° Northeast  Level Estimated
02:34PM 38.9403 -3.7121 42° Northeast  Level Estimated
02:35PM 39.0271 -3.6104 42° Northeast  Level Estimated
02:36PM 39.1138 -3.5085 42° Northeast  Level Estimated
02:37PM 39.2005 -3.4063 42° Northeast  Level Estimated
02:38PM 39.2870 -3.3039 43° Northeast  Level Estimated
02:39PM 39.3735 -3.2012 43° Northeast  Level Estimated
02:40PM 39.4599 -3.0983 43° Northeast  Level Estimated
02:41PM 39.5462 -2.9951 43° Northeast  Level Estimated
02:42PM 39.6324 -2.8917 43° Northeast  Level Estimated
02:43PM 39.7185 -2.7880 43° Northeast  Level Estimated
02:44PM 39.8045 -2.6840 43° Northeast  Level Estimated
02:45PM 39.8904 -2.5798 43° Northeast  Level Estimated
02:46PM 39.9762 -2.4753 43° Northeast  Level Estimated
02:47PM 40.0620 -2.3706 43° Northeast  Level Estimated
02:48PM 40.1476 -2.2656 43° Northeast  Level Estimated
02:49PM 40.2332 -2.1603 43° Northeast  Level Estimated
02:50PM 40.3186 -2.0548 43° Northeast  Level Estimated
02:51PM 40.4040 -1.9490 43° Northeast  Level Estimated
02:52PM 40.4893 -1.8429 43° Northeast  Level Estimated
02:53PM 40.5744 -1.7365 44° Northeast  Level Estimated
02:54PM 40.6595 -1.6299 44° Northeast  Level Estimated
02:55PM 40.7444 -1.5231 44° Northeast  Level Estimated
02:56PM 40.8293 -1.4159 44° Northeast  Level Estimated
02:57PM 40.9141 -1.3085 44° Northeast  Level Estimated
02:58PM 40.9987 -1.2008 44° Northeast  Level Estimated
02:59PM 41.0833 -1.0928 44° Northeast  Level Estimated
03:00PM 41.1678 -0.9845 44° Northeast  Level Estimated
03:01PM 41.2522 -0.8760 44° Northeast  Level Estimated
03:02PM 41.3364 -0.7671 44° Northeast  Level Estimated
03:03PM 41.4206 -0.6580 44° Northeast  Level Estimated
03:04PM 41.5046 -0.5487 44° Northeast  Level Estimated
03:05PM 41.5886 -0.4390 44° Northeast  Level Estimated
03:06PM 41.6724 -0.3290 44° Northeast  Level Estimated
03:07PM 41.7562 -0.2188 45° Northeast  Level Estimated
03:08PM 41.8398 -0.1082 45° Northeast  Level Estimated
03:09PM 41.9233 0.0026 45° Northeast  Level Estimated
03:10PM 42.0068 0.1137 45° Northeast  Level Estimated
03:11PM 42.0901 0.2251 45° Northeast  Level Estimated
03:12PM 42.1733 0.3368 45° Northeast  Level Estimated
03:13PM 42.2564 0.4488 45° Northeast  Level Estimated
03:14PM 42.3394 0.5611 45° Northeast  Level Estimated
03:15PM 42.4223 0.6736 45° Northeast  Level Estimated
03:16PM 42.5050 0.7865 45° Northeast  Level Estimated
03:17PM 42.5877 0.8997 45° Northeast  Level Estimated
03:18PM 42.6702 1.0132 45° Northeast  Level Estimated
03:19PM 42.7527 1.1270 45° Northeast  Level Estimated
03:20PM 42.8350 1.2410 46° Northeast  Level Estimated
03:21PM 42.9172 1.3554 46° Northeast  Level Estimated
03:22PM 42.9993 1.4701 46° Northeast  Level Estimated
03:23PM 43.0813 1.5851 46° Northeast  Level Estimated
03:24PM 43.1631 1.7004 46° Northeast  Level Estimated
03:25PM 43.2449 1.8161 46° Northeast  Level Estimated
03:26PM 43.3265 1.9320 46° Northeast  Level Estimated
03:27PM 43.4080 2.0482 46° Northeast  Level Estimated
03:28PM 43.4894 2.1648 46° Northeast  Level Estimated
03:29PM 43.5707 2.2816 46° Northeast  Level Estimated
03:30PM 43.6519 2.3988 46° Northeast  Level Estimated
03:31PM 43.7329 2.5163 46° Northeast  Level Estimated
03:32PM 43.8138 2.6341 46° Northeast  Level Estimated
03:33PM 43.8946 2.7523 47° Northeast  Level Estimated
03:34PM 43.9753 2.8707 47° Northeast  Level Estimated
03:35PM 44.0558 2.9895 47° Northeast  Level Estimated
03:36PM 44.1363 3.1086 47° Northeast  Level Estimated
03:37PM 44.2166 3.2280 47° Northeast  Level Estimated
03:38PM 44.2967 3.3478 47° Northeast  Level Estimated
03:39PM 44.3768 3.4679 47° Northeast  Level Estimated
03:40PM 44.4567 3.5883 47° Northeast  Level Estimated
03:41PM 44.5365 3.7090 47° Northeast  Level Estimated
03:42PM 44.6162 3.8301 47° Northeast  Level Estimated
03:43PM 44.6957 3.9515 47° Northeast  Level Estimated
03:44PM 44.7751 4.0732 47° Northeast  Level Estimated
03:45PM 44.8544 4.1953 48° Northeast  Level Estimated
03:46PM 44.9336 4.3177 48° Northeast  Level Estimated
03:47PM 45.0126 4.4405 48° Northeast  Level Estimated
03:48PM 45.0915 4.5635 48° Northeast  Level Estimated
03:49PM 45.1702 4.6870 48° Northeast  Level Estimated
03:50PM 45.2489 4.8107 48° Northeast  Level Estimated
03:51PM 45.3274 4.9349 48° Northeast  Level Estimated
03:52PM 45.4057 5.0593 48° Northeast  Level Estimated
03:53PM 45.4840 5.1841 48° Northeast  Level Estimated
03:54PM 45.5620 5.3092 48° Northeast  Level Estimated
03:55PM 45.6400 5.4347 48° Northeast  Level Estimated
03:56PM 45.7178 5.5606 49° Northeast  Level Estimated
03:57PM 45.7955 5.6868 49° Northeast  Level Estimated
03:58PM 45.8730 5.8133 49° Northeast  Level Estimated
03:59PM 45.9504 5.9402 49° Northeast  Level Estimated
04:00PM 46.0276 6.0675 49° Northeast  Level Estimated
04:01PM 46.1048 6.1951 49° Northeast  Level Estimated
04:02PM 46.1817 6.3231 49° Northeast  Level Estimated
04:03PM 46.2585 6.4514 49° Northeast  Level Estimated
04:04PM 46.3352 6.5801 49° Northeast  Level Estimated
04:05PM 46.4118 6.7091 49° Northeast  Level Estimated
04:06PM 46.4882 6.8385 49° Northeast  Level Estimated
04:07PM 46.5644 6.9683 50° Northeast  Level Estimated
04:08PM 46.6405 7.0984 50° Northeast  Level Estimated
04:09PM 46.7164 7.2289 50° Northeast  Level Estimated
04:10PM 46.7922 7.3598 50° Northeast  Level Estimated
04:11PM 46.8679 7.4910 50° Northeast  Level Estimated
04:12PM 46.9434 7.6227 50° Northeast  Level Estimated
04:13PM 47.0187 7.7546 50° Northeast  Level Estimated
04:14PM 47.0939 7.8870 50° Northeast  Level Estimated
04:15PM 47.1690 8.0197 50° Northeast  Level Estimated
04:16PM 47.2439 8.1528 50° Northeast  Level Estimated
04:17PM 47.3186 8.2863 51° Northeast  Level Estimated
04:18PM 47.3932 8.4201 51° Northeast  Level Estimated
04:19PM 47.4676 8.5544 231° Southwest  Level Estimated
04:20PM 47.3931 8.4202 51° Northeast  Level Estimated
04:21PM 47.4676 8.5544 231° Southwest  Level Estimated
04:22PM 47.3931 8.4202 51° Northeast  Level Estimated
04:23PM 47.4676 8.5544 231° Southwest  Level Estimated
04:24PM 47.3931 8.4202 51° Northeast  Level Estimated
04:25PM 47.4676 8.5544 231° Southwest  Level Estimated
04:26PM 47.3931 8.4202 51° Northeast  Level Estimated
04:27PM 47.4676 8.5544 231° Southwest  Level Estimated
04:28PM 47.3931 8.4202 51° Northeast  Level Estimated
04:29PM 47.4676 8.5544 231° Southwest  Level Estimated
04:30PM 47.3931 8.4202 51° Northeast  Level Estimated
04:31PM 47.4676 8.5544 231° Southwest  Level Estimated
04:32PM 47.3931 8.4202 51° Northeast  Level Estimated
04:33PM 47.4676 8.5544 231° Southwest  Level Estimated
04:34PM 47.3931 8.4202 231° Southwest  Level Estimated